Time;durP1;ratioP1;P1;durP2;ratioP2;P2;SDS_P1;SDS_P2;PMS_P1;PMS_P2;Temp;Humidity;BMP_temperature;BMP_pressure;BME280_temperature;BME280_humidity;BME280_pressure;Samples;Min_cycle;Max_cycle;Signal;HPM_P1;HPM_P2
2024/02/07 00:01:47;;;;;;;34.13;16.30;;;12.10;94.30;;;;;;773312;183;27041;-76
2024/02/07 00:04:13;;;;;;;22.97;11.47;;;12.20;94.10;;;;;;771534;184;26459;-77
2024/02/07 00:06:40;;;;;;;12.17;5.53;;;12.10;94.30;;;;;;769814;184;26570;-77
2024/02/07 00:09:06;;;;;;;9.97;6.10;;;12.10;94.40;;;;;;774648;183;26882;-78
2024/02/07 00:11:33;;;;;;;7.13;4.40;;;12.20;94.50;;;;;;774030;181;26528;-77
2024/02/07 00:14:00;;;;;;;9.10;4.70;;;12.20;94.40;;;;;;777149;184;27091;-77
2024/02/07 00:16:26;;;;;;;13.43;5.33;;;12.10;95.20;;;;;;771135;183;26657;-76
2024/02/07 00:18:53;;;;;;;12.57;6.27;;;12.10;95.50;;;;;;774608;184;27242;-76
2024/02/07 00:21:19;;;;;;;48.17;22.30;;;12.00;95.20;;;;;;770035;184;26564;-76
2024/02/07 00:23:46;;;;;;;32.63;13.30;;;12.00;95.50;;;;;;771990;184;26464;-78
2024/02/07 00:26:12;;;;;;;30.87;14.43;;;12.00;95.60;;;;;;775444;184;26502;-77
2024/02/07 00:28:39;;;;;;;8.20;4.90;;;12.00;95.90;;;;;;770331;184;26496;-77
2024/02/07 00:31:07;;;;;;;7.53;4.70;;;11.90;96.20;;;;;;770723;184;27078;-78
2024/02/07 00:33:32;;;;;;;5.23;3.90;;;11.80;97.10;;;;;;776749;175;26546;-77
2024/02/07 00:35:59;;;;;;;11.57;5.30;;;11.70;97.80;;;;;;768720;184;26476;-76
2024/02/07 00:38:25;;;;;;;7.03;3.93;;;11.70;98.20;;;;;;782294;184;26465;-77
2024/02/07 00:40:52;;;;;;;65.50;30.37;;;11.60;97.80;;;;;;782691;183;26476;-77
2024/02/07 00:43:19;;;;;;;29.27;13.80;;;11.60;98.20;;;;;;765663;184;27102;-76
2024/02/07 00:45:45;;;;;;;38.10;19.57;;;11.50;98.40;;;;;;744992;188;26513;-78
2024/02/07 00:48:12;;;;;;;10.93;6.00;;;11.50;98.80;;;;;;753808;185;26476;-78
2024/02/07 00:50:39;;;;;;;10.03;5.20;;;11.50;98.60;;;;;;758461;186;26528;-76
2024/02/07 00:53:07;;;;;;;9.67;4.60;;;11.50;99.20;;;;;;752807;189;26512;-77
2024/02/07 00:55:33;;;;;;;5.57;4.40;;;11.40;99.10;;;;;;754062;187;26485;-79
2024/02/07 00:58:00;;;;;;;5.37;3.47;;;11.50;98.80;;;;;;753627;189;26507;-78
2024/02/07 01:00:27;;;;;;;17.20;4.57;;;11.60;98.50;;;;;;752485;189;26585;-78
2024/02/07 01:02:53;;;;;;;19.30;8.97;;;11.60;98.40;;;;;;750803;190;26574;-78
2024/02/07 01:05:20;;;;;;;20.53;9.20;;;11.50;98.70;;;;;;746417;190;26508;-78
2024/02/07 01:07:47;;;;;;;80.13;35.00;;;11.50;99.40;;;;;;747085;190;27109;-79
2024/02/07 01:10:14;;;;;;;26.40;12.33;;;11.40;99.30;;;;;;748091;190;26527;-77
2024/02/07 01:12:40;;;;;;;17.70;9.37;;;11.50;98.80;;;;;;750120;188;26521;-77
2024/02/07 01:15:08;;;;;;;13.50;6.97;;;11.50;99.10;;;;;;754135;187;27045;-77
2024/02/07 01:17:33;;;;;;;10.10;5.97;;;11.50;98.70;;;;;;762119;184;26507;-79
2024/02/07 01:20:00;;;;;;;6.50;4.60;;;11.60;98.60;;;;;;757727;188;26507;-78
2024/02/07 01:22:27;;;;;;;7.40;4.70;;;11.50;98.70;;;;;;756143;188;26501;-78
2024/02/07 01:24:55;;;;;;;9.20;5.13;;;11.50;99.10;;;;;;759047;188;27065;-77
2024/02/07 01:27:21;;;;;;;11.83;6.50;;;11.50;99.40;;;;;;759927;188;26513;-78
2024/02/07 01:29:49;;;;;;;14.87;8.03;;;11.40;99.50;;;;;;755412;187;26494;-78
2024/02/07 01:32:14;;;;;;;6.33;3.97;;;11.40;99.90;;;;;;757029;188;26499;-77
2024/02/07 01:34:41;;;;;;;9.37;4.07;;;11.40;99.90;;;;;;761774;187;27038;-78
2024/02/07 01:37:07;;;;;;;6.70;4.70;;;11.40;99.90;;;;;;759979;188;26512;-78
2024/02/07 01:39:35;;;;;;;6.63;4.20;;;11.30;99.90;;;;;;761314;187;27151;-78
2024/02/07 01:42:02;;;;;;;7.93;4.40;;;11.20;99.90;;;;;;758797;187;26554;-77
2024/02/07 01:44:29;;;;;;;5.70;4.37;;;11.20;99.90;;;;;;757759;184;28155;-77
2024/02/07 01:49:28;;;;;;;13.63;7.27;;;11.30;99.90;;;;;;756862;188;26489;-78
2024/02/07 01:51:55;;;;;;;12.00;5.37;;;11.30;99.90;;;;;;758969;187;26501;-76
2024/02/07 01:54:21;;;;;;;11.00;5.07;;;11.30;99.90;;;;;;759188;187;26515;-79
2024/02/07 01:56:48;;;;;;;12.07;5.47;;;11.30;99.90;;;;;;757605;187;26485;-78
2024/02/07 01:59:15;;;;;;;11.53;5.23;;;11.20;99.90;;;;;;761307;187;26511;-77
2024/02/07 02:01:42;;;;;;;11.27;5.07;;;11.20;99.90;;;;;;760097;187;26502;-78
2024/02/07 02:04:08;;;;;;;12.93;6.10;;;11.20;99.90;;;;;;764062;187;26519;-78
2024/02/07 02:06:35;;;;;;;10.43;5.83;;;11.20;99.90;;;;;;760048;185;26516;-77
2024/02/07 02:09:05;;;;;;;8.13;5.00;;;11.20;99.90;;;;;;758770;187;26518;-78
2024/02/07 02:11:28;;;;;;;11.87;5.53;;;11.20;99.90;;;;;;752770;187;26819;-78
2024/02/07 02:13:54;;;;;;;13.93;6.67;;;11.20;99.90;;;;;;751783;190;26545;-78
2024/02/07 02:16:21;;;;;;;14.67;6.57;;;11.10;99.90;;;;;;758122;187;27037;-78
2024/02/07 02:18:47;;;;;;;14.03;6.50;;;11.10;99.90;;;;;;746151;191;26539;-77
2024/02/07 02:21:14;;;;;;;12.13;5.70;;;11.10;99.90;;;;;;760129;188;26511;-77
2024/02/07 02:23:44;;;;;;;9.57;5.20;;;11.00;99.90;;;;;;745063;191;26541;-78
2024/02/07 02:26:20;;;;;;;11.20;5.20;;;11.10;99.90;;;;;;753346;186;26516;-78
2024/02/07 02:29:14;;;;;;;11.37;5.00;;;11.10;99.90;;;;;;750587;190;26558;-77
2024/02/07 02:31:38;;;;;;;8.97;5.43;;;11.00;99.90;;;;;;746196;190;26505;-78
2024/02/07 02:34:05;;;;;;;9.53;4.63;;;11.00;99.90;;;;;;750218;188;27084;-78
2024/02/07 02:36:31;;;;;;;11.77;4.37;;;11.10;99.90;;;;;;740644;191;26531;-78
2024/02/07 02:38:58;;;;;;;7.83;4.23;;;11.00;99.90;;;;;;743379;191;26524;-77
2024/02/07 02:41:24;;;;;;;11.60;6.07;;;11.10;99.90;;;;;;748431;191;26544;-78
2024/02/07 02:43:52;;;;;;;10.23;4.80;;;11.00;99.90;;;;;;748144;191;26517;-77
2024/02/07 02:46:17;;;;;;;10.33;4.53;;;11.00;99.90;;;;;;748895;190;27108;-78
2024/02/07 02:48:44;;;;;;;9.43;3.57;;;11.10;99.90;;;;;;749019;190;27120;-77
2024/02/07 02:51:11;;;;;;;10.27;4.87;;;11.20;99.90;;;;;;745415;190;26522;-77
2024/02/07 02:53:38;;;;;;;6.43;3.20;;;11.20;99.90;;;;;;748239;190;26514;-78
2024/02/07 02:56:05;;;;;;;11.87;6.23;;;11.20;99.90;;;;;;748260;190;26522;-78
2024/02/07 02:58:32;;;;;;;33.47;17.60;;;11.20;99.90;;;;;;749099;191;26528;-78
2024/02/07 03:00:58;;;;;;;52.03;22.57;;;11.10;99.90;;;;;;748871;190;27075;-76
2024/02/07 03:03:26;;;;;;;10.03;4.60;;;11.10;99.90;;;;;;747979;191;26521;-77
2024/02/07 03:05:58;;;;;;;15.53;6.30;;;11.10;99.90;;;;;;749726;190;26518;-77
2024/02/07 03:08:29;;;;;;;9.77;4.70;;;11.10;99.90;;;;;;749658;190;26520;-77
2024/02/07 03:10:50;;;;;;;10.37;5.43;;;11.00;99.90;;;;;;747119;190;26519;-78
2024/02/07 03:13:17;;;;;;;11.10;5.50;;;11.00;99.90;;;;;;746373;188;26543;-77
2024/02/07 03:15:43;;;;;;;7.23;3.97;;;11.00;99.90;;;;;;749514;190;26536;-78
2024/02/07 03:18:10;;;;;;;9.80;4.20;;;11.00;99.90;;;;;;744836;191;26522;-78
2024/02/07 03:20:36;;;;;;;14.97;9.90;;;11.00;99.90;;;;;;746710;190;27083;-77
2024/02/07 03:23:03;;;;;;;11.73;6.83;;;11.00;99.90;;;;;;758631;187;26661;-78
2024/02/07 03:25:32;;;;;;;20.27;10.73;;;11.10;99.90;;;;;;761801;187;26521;-77
2024/02/07 03:27:56;;;;;;;8.53;5.30;;;11.10;99.90;;;;;;750886;188;26587;-77
2024/02/07 03:30:24;;;;;;;6.33;3.53;;;11.10;99.90;;;;;;742944;192;26519;-78
2024/02/07 03:32:51;;;;;;;8.70;4.07;;;11.10;99.90;;;;;;747221;187;26551;-78
2024/02/07 03:35:16;;;;;;;6.57;3.87;;;11.00;99.90;;;;;;748027;190;26520;-78
2024/02/07 03:37:43;;;;;;;6.17;3.87;;;11.00;99.90;;;;;;748631;188;27154;-78
2024/02/07 03:40:14;;;;;;;8.13;4.70;;;11.10;99.90;;;;;;748269;190;26512;-78
2024/02/07 03:42:39;;;;;;;5.70;3.10;;;11.10;99.90;;;;;;745047;191;26551;-78
2024/02/07 03:45:07;;;;;;;6.67;3.33;;;11.10;99.90;;;;;;765968;187;26643;-78
2024/02/07 03:47:34;;;;;;;4.90;3.00;;;11.10;99.90;;;;;;762670;186;26517;-78
2024/02/07 03:50:05;;;;;;;3.13;2.63;;;11.20;99.90;;;;;;757577;188;27079;-77
2024/02/07 03:52:27;;;;;;;4.47;2.90;;;11.20;99.90;;;;;;761447;187;26515;-76
2024/02/07 03:54:53;;;;;;;6.50;3.13;;;11.10;99.90;;;;;;759873;188;26531;-78
2024/02/07 03:57:21;;;;;;;7.23;3.30;;;11.10;99.90;;;;;;750341;190;26541;-78
2024/02/07 03:59:47;;;;;;;4.63;2.90;;;11.10;99.90;;;;;;746548;190;26508;-78
2024/02/07 04:02:23;;;;;;;4.80;2.97;;;11.00;99.90;;;;;;749087;191;26516;-78
2024/02/07 04:04:49;;;;;;;3.70;3.27;;;11.00;99.90;;;;;;749234;190;27702;-78
2024/02/07 04:07:17;;;;;;;8.87;3.80;;;11.00;99.90;;;;;;748299;192;27182;-78
2024/02/07 04:09:43;;;;;;;6.13;3.57;;;11.10;99.90;;;;;;749746;191;26520;-79
2024/02/07 05:17:51;;;;;;;6.97;4.07;;;10.60;99.90;;;;;;759506;187;26805;-79
2024/02/07 05:20:17;;;;;;;8.00;4.27;;;10.60;99.90;;;;;;743482;187;26554;-78
2024/02/07 05:22:44;;;;;;;5.53;4.03;;;10.60;99.90;;;;;;755169;187;26486;-78
2024/02/07 05:25:11;;;;;;;5.00;4.00;;;10.60;99.90;;;;;;754366;188;27037;-79
2024/02/07 05:27:38;;;;;;;8.20;4.03;;;10.60;99.90;;;;;;746694;188;27108;-80
2024/02/07 05:30:05;;;;;;;5.93;4.00;;;10.10;99.90;;;;;;740938;191;26518;-79
2024/02/07 05:32:32;;;;;;;9.30;4.80;;;9.40;99.90;;;;;;742574;191;26543;-80
2024/02/07 05:34:59;;;;;;;7.33;3.83;;;8.90;99.90;;;;;;748369;191;26658;-79
2024/02/07 05:37:28;;;;;;;7.17;2.80;;;8.60;99.90;;;;;;746686;191;26497;-80
2024/02/07 05:39:52;;;;;;;8.10;2.17;;;8.00;99.90;;;;;;750029;190;26519;-80
2024/02/07 05:42:19;;;;;;;4.10;2.23;;;7.70;99.90;;;;;;757266;187;26542;-80
2024/02/07 05:44:47;;;;;;;6.67;2.60;;;7.50;99.90;;;;;;750823;190;26496;-81
2024/02/07 05:47:12;;;;;;;5.30;2.90;;;7.50;99.90;;;;;;754187;187;26499;-80
2024/02/07 05:49:39;;;;;;;6.03;2.50;;;7.20;99.90;;;;;;757215;188;26475;-79
2024/02/07 05:52:05;;;;;;;6.53;3.00;;;7.10;99.90;;;;;;752844;187;26595;-79
2024/02/07 05:54:33;;;;;;;4.87;2.70;;;7.10;99.90;;;;;;756518;187;27046;-80
2024/02/07 05:56:59;;;;;;;4.67;2.90;;;7.10;99.90;;;;;;749108;190;26533;-80
2024/02/07 05:59:25;;;;;;;7.33;3.13;;;6.90;99.90;;;;;;748230;189;26510;-80
2024/02/07 06:01:52;;;;;;;6.13;3.07;;;6.70;99.90;;;;;;755448;188;26488;-80
2024/02/07 06:04:18;;;;;;;5.53;3.50;;;6.70;99.90;;;;;;748745;190;26545;-79
2024/02/07 06:09:31;;;;;;;6.87;3.17;;;6.70;99.90;;;;;;708303;175;26602;-80
2024/02/07 06:12:04;;;;;;;8.63;4.00;;;6.60;99.90;;;;;;750104;187;26496;-80
2024/02/07 06:14:31;;;;;;;6.57;4.00;;;6.60;99.90;;;;;;760839;186;26534;-79
2024/02/07 06:16:58;;;;;;;8.17;4.80;;;6.60;99.90;;;;;;760256;184;26510;-80
2024/02/07 06:22:06;;;;;;;8.80;5.90;;;6.60;99.90;;;;;;766696;181;26475;-78
2024/02/07 06:24:33;;;;;;;11.63;7.10;;;6.50;99.90;;;;;;764270;184;26511;-81
2024/02/07 06:29:48;;;;;;;13.30;9.03;;;6.50;99.90;;;;;;762474;182;26476;-79
2024/02/07 06:32:18;;;;;;;13.10;9.43;;;6.60;99.90;;;;;;764092;187;26639;-80
2024/02/07 06:34:45;;;;;;;10.93;8.23;;;6.60;99.90;;;;;;775660;173;26547;-80
2024/02/07 06:37:11;;;;;;;12.13;7.97;;;6.50;99.90;;;;;;802583;177;27005;-81
2024/02/07 06:39:38;;;;;;;12.30;8.37;;;6.50;99.90;;;;;;804055;177;26847;-83
2024/02/07 06:42:05;;;;;;;13.80;8.00;;;6.40;99.90;;;;;;800440;177;26458;-82
2024/02/07 06:44:31;;;;;;;9.10;7.33;;;6.40;99.90;;;;;;798443;177;26455;-81
2024/02/07 06:46:58;;;;;;;15.00;9.70;;;6.40;99.90;;;;;;793535;179;26440;-80
2024/02/07 06:49:24;;;;;;;14.13;9.53;;;6.40;99.90;;;;;;766756;183;26478;-81
2024/02/07 06:51:51;;;;;;;15.53;9.20;;;6.40;99.90;;;;;;788918;180;26455;-82
2024/02/07 06:54:18;;;;;;;13.33;9.53;;;6.30;99.90;;;;;;796976;178;26475;-81
2024/02/07 06:56:44;;;;;;;14.17;10.63;;;6.40;99.90;;;;;;772242;183;27038;-80
2024/02/07 06:59:12;;;;;;;17.63;11.13;;;6.40;99.90;;;;;;793097;179;26427;-82
2024/02/07 07:01:37;;;;;;;16.67;10.53;;;6.30;99.90;;;;;;796566;179;26479;-79
2024/02/07 07:04:04;;;;;;;16.17;12.07;;;6.40;99.90;;;;;;790766;180;27021;-81
2024/02/07 07:06:31;;;;;;;12.17;10.70;;;6.50;99.90;;;;;;773305;184;26531;-81
2024/02/07 07:08:57;;;;;;;18.03;13.30;;;6.50;99.90;;;;;;771050;182;26474;-83
2024/02/07 07:11:24;;;;;;;20.63;12.97;;;6.50;99.90;;;;;;782111;184;26492;-84
2024/02/07 07:13:50;;;;;;;20.40;15.13;;;6.50;99.90;;;;;;776895;181;26475;-81
2024/02/07 07:16:18;;;;;;;20.07;12.73;;;6.60;99.90;;;;;;774474;184;26614;-80
2024/02/07 07:18:44;;;;;;;20.20;14.20;;;6.60;99.90;;;;;;790490;178;26468;-81
2024/02/07 07:21:11;;;;;;;19.27;13.93;;;6.50;99.90;;;;;;791556;180;26526;-80
2024/02/07 07:23:38;;;;;;;20.27;13.90;;;6.50;99.90;;;;;;791172;180;26969;-83
2024/02/07 07:26:04;;;;;;;19.43;14.10;;;6.40;99.90;;;;;;791896;179;26433;-83
2024/02/07 07:28:31;;;;;;;23.17;15.93;;;6.40;99.90;;;;;;791931;180;26454;-83
2024/02/07 07:30:57;;;;;;;18.00;13.00;;;6.50;99.90;;;;;;794077;178;26443;-81
2024/02/07 07:33:24;;;;;;;18.47;12.67;;;6.40;99.90;;;;;;789049;181;26455;-79
2024/02/07 07:35:51;;;;;;;22.13;14.40;;;6.40;99.90;;;;;;791213;180;26444;-83
2024/02/07 07:38:17;;;;;;;24.77;16.17;;;6.40;99.90;;;;;;782360;181;26480;-82
2024/02/07 07:40:44;;;;;;;22.67;14.20;;;6.50;99.90;;;;;;790971;179;26472;-82
2024/02/07 07:43:10;;;;;;;19.27;12.77;;;6.40;99.90;;;;;;790132;181;26445;-84
2024/02/07 07:45:37;;;;;;;19.87;12.57;;;6.40;99.90;;;;;;789769;180;26443;-80
2024/02/07 07:48:04;;;;;;;21.40;12.57;;;6.30;99.90;;;;;;777669;180;26454;-81
2024/02/07 07:50:31;;;;;;;21.63;12.93;;;6.40;99.90;;;;;;786104;180;26453;-82
2024/02/07 07:52:58;;;;;;;17.50;11.50;;;6.40;99.90;;;;;;788674;181;26441;-81
2024/02/07 07:55:24;;;;;;;18.57;10.93;;;6.30;99.90;;;;;;788411;181;26458;-82
2024/02/07 07:57:51;;;;;;;15.83;11.50;;;6.20;99.90;;;;;;789816;180;27049;-83
2024/02/07 08:00:18;;;;;;;17.87;12.57;;;6.20;99.90;;;;;;792917;178;26452;-81
2024/02/07 08:02:44;;;;;;;18.87;12.27;;;6.30;99.90;;;;;;793713;178;26420;-81
2024/02/07 08:05:11;;;;;;;16.87;10.47;;;6.40;99.90;;;;;;773292;183;26490;-79
2024/02/07 08:07:38;;;;;;;14.60;9.77;;;6.30;99.90;;;;;;791766;179;26444;-82
2024/02/07 08:10:05;;;;;;;20.93;12.07;;;6.20;99.90;;;;;;796005;179;26479;-83
2024/02/07 08:12:32;;;;;;;13.93;9.40;;;6.20;99.90;;;;;;792324;179;26423;-83
2024/02/07 08:14:58;;;;;;;19.90;11.40;;;6.10;99.90;;;;;;792704;179;26470;-82
2024/02/07 08:17:25;;;;;;;19.20;10.87;;;6.10;99.90;;;;;;792962;179;26461;-83
2024/02/07 08:19:52;;;;;;;19.47;9.57;;;6.10;99.90;;;;;;791890;179;26424;-81
2024/02/07 08:22:18;;;;;;;19.70;10.67;;;6.10;99.90;;;;;;763561;183;26538;-81
2024/02/07 08:24:45;;;;;;;18.07;9.60;;;6.00;99.90;;;;;;793242;178;26453;-83
2024/02/07 08:27:12;;;;;;;15.77;8.23;;;6.00;99.90;;;;;;792113;179;26471;-83
2024/02/07 08:29:39;;;;;;;16.70;8.67;;;5.90;99.90;;;;;;793064;178;27454;-82
2024/02/07 08:32:05;;;;;;;16.53;8.97;;;6.10;99.90;;;;;;792696;178;26997;-80
2024/02/07 08:34:33;;;;;;;15.80;8.37;;;6.10;99.90;;;;;;778921;180;26541;-83
2024/02/07 08:36:59;;;;;;;14.70;7.60;;;6.10;99.90;;;;;;792828;178;27003;-85
2024/02/07 08:39:25;;;;;;;14.47;8.20;;;6.20;99.90;;;;;;792006;178;26441;-83
2024/02/07 08:41:54;;;;;;;19.03;8.87;;;6.20;99.90;;;;;;780065;180;26534;-81
2024/02/07 08:44:18;;;;;;;14.37;7.83;;;6.20;99.90;;;;;;792386;179;26481;-82
2024/02/07 08:46:47;;;;;;;10.17;6.90;;;6.20;99.90;;;;;;792299;178;26457;-82
2024/02/07 08:49:11;;;;;;;11.57;6.47;;;6.10;99.90;;;;;;781367;180;26475;-82
2024/02/07 08:51:38;;;;;;;10.77;6.53;;;6.00;99.90;;;;;;793904;181;26481;-84
2024/02/07 08:54:05;;;;;;;13.87;6.87;;;6.00;99.90;;;;;;783833;180;26493;-82
2024/02/07 08:56:31;;;;;;;10.90;7.07;;;6.00;99.90;;;;;;791541;179;26624;-81
2024/02/07 08:58:58;;;;;;;15.90;8.03;;;6.00;99.90;;;;;;792140;180;26473;-85
2024/02/07 09:01:25;;;;;;;17.83;7.87;;;6.10;99.90;;;;;;775788;180;26492;-85
2024/02/07 09:03:51;;;;;;;12.80;6.70;;;6.10;99.90;;;;;;795122;174;26441;-85
2024/02/07 09:06:18;;;;;;;14.47;7.37;;;6.00;99.90;;;;;;784380;177;26466;-84
2024/02/07 09:08:44;;;;;;;10.13;5.27;;;6.10;99.90;;;;;;781889;179;26462;-82
2024/02/07 09:11:11;;;;;;;8.20;5.50;;;6.00;99.90;;;;;;794748;175;26792;-83
2024/02/07 09:13:38;;;;;;;10.73;5.23;;;6.00;99.90;;;;;;794242;175;26428;-84
2024/02/07 09:16:05;;;;;;;9.63;5.07;;;6.00;99.90;;;;;;796712;178;26507;-82
2024/02/07 09:18:35;;;;;;;15.43;5.37;;;6.20;99.90;;;;;;797653;177;26427;-81
2024/02/07 09:20:58;;;;;;;8.23;3.83;;;6.30;99.90;;;;;;794099;179;26980;-85
2024/02/07 09:23:25;;;;;;;11.23;4.43;;;6.20;99.90;;;;;;786233;181;26461;-84
2024/02/07 09:25:51;;;;;;;9.73;3.37;;;6.30;99.90;;;;;;788525;181;26466;-82
2024/02/07 09:28:18;;;;;;;9.27;3.93;;;6.10;99.90;;;;;;789798;179;26413;-86
2024/02/07 09:30:44;;;;;;;9.23;3.87;;;6.00;99.90;;;;;;793980;175;26433;-86
2024/02/07 09:33:11;;;;;;;10.67;3.63;;;6.00;99.90;;;;;;792652;179;26439;-84
2024/02/07 09:35:37;;;;;;;9.87;4.17;;;5.90;99.90;;;;;;796685;174;26455;-86
2024/02/07 09:38:04;;;;;;;15.53;4.70;;;5.90;99.90;;;;;;795020;177;26411;-86
2024/02/07 09:40:31;;;;;;;13.53;3.77;;;6.10;99.90;;;;;;795464;177;26420;-77
2024/02/07 09:42:57;;;;;;;8.70;3.40;;;6.00;99.90;;;;;;795835;177;26437;-84
2024/02/07 09:48:20;;;;;;;10.77;4.60;;;5.90;99.90;;;;;;779596;180;26444;-85
2024/02/07 09:50:50;;;;;;;8.40;3.67;;;6.00;99.90;;;;;;781338;177;26487;-82
2024/02/07 09:53:15;;;;;;;13.30;4.90;;;6.10;99.90;;;;;;782135;180;26464;-82
2024/02/07 09:55:43;;;;;;;14.10;5.10;;;6.30;99.90;;;;;;792153;181;26448;-81
2024/02/07 09:58:10;;;;;;;12.20;4.67;;;6.50;99.90;;;;;;793657;181;26442;-83
2024/02/07 10:00:37;;;;;;;10.17;4.53;;;6.60;99.90;;;;;;792049;181;27015;-82
2024/02/07 10:03:06;;;;;;;8.53;4.00;;;6.60;99.90;;;;;;788278;181;26524;-83
2024/02/07 10:05:32;;;;;;;10.97;4.33;;;6.50;99.90;;;;;;806654;176;26412;-83
2024/02/07 10:08:00;;;;;;;12.00;4.87;;;6.60;99.90;;;;;;806678;174;26979;-82
2024/02/07 10:10:27;;;;;;;6.67;3.77;;;6.40;99.90;;;;;;816841;173;26425;-84
2024/02/07 10:12:56;;;;;;;9.73;3.70;;;6.50;99.90;;;;;;809179;173;26422;-84
2024/02/07 10:15:23;;;;;;;13.17;4.10;;;6.40;99.90;;;;;;822960;173;26972;-83
2024/02/07 10:17:50;;;;;;;16.27;4.57;;;6.30;99.90;;;;;;807584;174;26460;-83
2024/02/07 10:20:17;;;;;;;10.67;4.20;;;6.30;99.90;;;;;;806388;175;26436;-84
2024/02/07 10:22:44;;;;;;;8.20;2.90;;;6.30;99.90;;;;;;793917;181;26468;-83
2024/02/07 10:25:12;;;;;;;14.53;4.00;;;6.30;99.90;;;;;;790327;181;26463;-83
2024/02/07 10:27:39;;;;;;;14.03;3.23;;;6.40;99.90;;;;;;792158;178;27011;-84
2024/02/07 10:30:08;;;;;;;8.90;3.60;;;6.40;99.90;;;;;;797404;178;26458;-83
2024/02/07 10:32:34;;;;;;;10.57;3.70;;;6.40;99.90;;;;;;793321;180;26462;-83
2024/02/07 10:35:02;;;;;;;11.30;4.03;;;6.30;99.90;;;;;;796907;180;26492;-84
2024/02/07 10:37:27;;;;;;;12.67;3.63;;;6.20;99.90;;;;;;789440;177;27037;-84
2024/02/07 10:40:01;;;;;;;16.93;4.37;;;6.30;99.90;;;;;;791892;181;26485;-84
2024/02/07 10:42:27;;;;;;;12.10;4.37;;;6.30;99.90;;;;;;792299;181;26461;-83
2024/02/07 10:45:03;;;;;;;18.77;5.97;;;6.30;99.90;;;;;;789166;181;26486;-82
2024/02/07 10:47:29;;;;;;;12.50;5.57;;;6.40;99.90;;;;;;813959;173;26986;-82
2024/02/07 10:49:56;;;;;;;13.83;5.00;;;6.40;99.90;;;;;;814377;172;26450;-83
2024/02/07 10:52:23;;;;;;;17.47;6.53;;;6.20;99.90;;;;;;814512;173;26431;-82
2024/02/07 10:54:49;;;;;;;11.67;5.00;;;6.10;99.90;;;;;;812692;173;26456;-82
2024/02/07 10:57:16;;;;;;;22.60;5.87;;;5.90;99.90;;;;;;815200;172;26441;-82
2024/02/07 10:59:42;;;;;;;16.07;5.80;;;5.70;99.90;;;;;;815343;173;26571;-82
2024/02/07 11:02:09;;;;;;;16.90;4.60;;;5.70;99.90;;;;;;814663;173;26450;-82
2024/02/07 11:04:36;;;;;;;12.20;5.37;;;5.60;99.90;;;;;;814582;173;26433;-82
2024/02/07 11:07:02;;;;;;;11.90;3.93;;;5.60;99.90;;;;;;813799;173;26480;-84
2024/02/07 11:09:29;;;;;;;17.17;5.33;;;5.60;99.90;;;;;;811221;173;26458;-82
2024/02/07 11:11:55;;;;;;;18.10;5.07;;;5.70;99.90;;;;;;806865;173;26431;-83
2024/02/07 11:14:22;;;;;;;13.40;4.87;;;5.70;99.90;;;;;;813987;173;26428;-83
2024/02/07 11:16:49;;;;;;;14.03;4.53;;;5.80;99.90;;;;;;813630;172;26955;-85
2024/02/07 11:19:15;;;;;;;17.13;4.33;;;5.80;99.90;;;;;;813908;173;26444;-82
2024/02/07 11:21:42;;;;;;;14.93;4.17;;;5.80;99.90;;;;;;813468;173;26413;-82
2024/02/07 11:24:09;;;;;;;14.27;5.20;;;5.80;99.90;;;;;;813084;173;26458;-83
2024/02/07 11:26:35;;;;;;;15.50;5.57;;;5.90;99.90;;;;;;812309;173;26468;-83
2024/02/07 11:29:02;;;;;;;11.73;4.30;;;6.00;99.90;;;;;;813660;173;26438;-83
2024/02/07 11:31:30;;;;;;;10.43;4.00;;;5.90;99.90;;;;;;813985;173;26435;-83
2024/02/07 11:33:55;;;;;;;13.97;5.60;;;5.90;99.90;;;;;;814593;173;26487;-84
2024/02/07 11:36:22;;;;;;;11.07;3.63;;;6.10;99.90;;;;;;811719;173;26479;-83
2024/02/07 11:38:48;;;;;;;10.63;3.67;;;5.90;99.90;;;;;;814863;173;27024;-83
2024/02/07 11:41:16;;;;;;;22.73;11.03;;;5.80;99.90;;;;;;817817;172;26430;-83
2024/02/07 11:43:43;;;;;;;29.17;11.47;;;5.70;99.90;;;;;;811189;173;26461;-83
2024/02/07 11:46:09;;;;;;;9.83;4.10;;;5.60;99.90;;;;;;815811;173;26471;-83
2024/02/07 11:48:37;;;;;;;22.27;9.03;;;5.50;99.90;;;;;;816195;173;26408;-83
2024/02/07 11:51:06;;;;;;;19.43;7.33;;;5.50;99.90;;;;;;813647;173;26424;-82
2024/02/07 11:53:32;;;;;;;18.90;6.63;;;5.50;99.90;;;;;;811217;173;26424;-83
2024/02/07 11:55:58;;;;;;;15.30;5.37;;;5.60;99.90;;;;;;819713;173;26417;-85
2024/02/07 11:58:25;;;;;;;7.40;4.10;;;5.60;99.90;;;;;;820106;173;27024;-84
2024/02/07 12:00:52;;;;;;;12.50;5.13;;;5.50;99.90;;;;;;806980;177;26404;-82
2024/02/07 12:03:20;;;;;;;6.87;3.70;;;5.50;99.90;;;;;;808248;177;26966;-83
2024/02/07 12:05:46;;;;;;;9.77;3.77;;;5.40;99.90;;;;;;806979;175;26453;-83
2024/02/07 12:08:13;;;;;;;11.07;4.17;;;5.40;99.90;;;;;;807810;174;26424;-83
2024/02/07 12:10:39;;;;;;;7.83;2.67;;;5.40;99.90;;;;;;806525;177;26424;-83
2024/02/07 12:13:06;;;;;;;8.97;3.27;;;5.20;99.90;;;;;;816074;173;26413;-83
2024/02/07 12:15:33;;;;;;;6.50;2.33;;;5.10;99.90;;;;;;806946;176;26417;-83
2024/02/07 12:17:59;;;;;;;5.77;2.50;;;5.10;99.90;;;;;;809602;174;26419;-83
2024/02/07 12:20:30;;;;;;;11.37;2.80;;;5.00;99.90;;;;;;816288;174;26418;-83
2024/02/07 12:22:59;;;;;;;7.97;3.20;;;4.90;99.90;;;;;;817425;173;26444;-83
2024/02/07 12:25:26;;;;;;;9.30;2.87;;;4.90;99.90;;;;;;813049;174;26418;-83
2024/02/07 12:27:52;;;;;;;9.23;3.50;;;4.80;99.90;;;;;;812849;174;26434;-83
2024/02/07 12:30:19;;;;;;;9.40;3.03;;;4.90;99.90;;;;;;815675;173;26936;-83
2024/02/07 12:32:46;;;;;;;8.17;3.33;;;5.00;99.90;;;;;;809114;172;26436;-84
2024/02/07 12:35:12;;;;;;;11.10;3.23;;;5.00;99.90;;;;;;807592;170;26479;-78
2024/02/07 12:37:40;;;;;;;9.70;3.23;;;4.90;99.90;;;;;;798953;177;26442;-78
2024/02/07 12:40:11;;;;;;;13.27;3.67;;;5.00;99.90;;;;;;802477;177;26457;-78
2024/02/07 12:42:37;;;;;;;13.17;3.80;;;5.00;99.90;;;;;;803795;177;26987;-79
2024/02/07 12:45:04;;;;;;;10.83;4.10;;;4.80;99.90;;;;;;807922;176;26408;-79
2024/02/07 12:47:31;;;;;;;9.20;3.53;;;4.80;99.90;;;;;;811135;175;26401;-79
2024/02/07 12:49:57;;;;;;;9.10;3.43;;;4.80;99.90;;;;;;808343;176;26411;-78
2024/02/07 12:52:25;;;;;;;6.13;2.87;;;4.80;99.90;;;;;;806216;173;26427;-78
2024/02/07 12:54:52;;;;;;;5.40;3.20;;;4.80;99.90;;;;;;807660;178;26426;-79
2024/02/07 12:57:23;;;;;;;9.83;4.03;;;4.60;99.90;;;;;;808341;172;27626;-79
2024/02/07 12:59:49;;;;;;;7.80;2.93;;;4.60;99.90;;;;;;812634;172;26397;-79
2024/02/07 13:02:16;;;;;;;11.10;2.67;;;4.70;99.90;;;;;;811722;173;26409;-79
2024/02/07 13:04:42;;;;;;;10.10;3.50;;;4.80;99.90;;;;;;806982;173;26403;-79
2024/02/07 13:07:11;;;;;;;6.23;3.07;;;4.80;99.90;;;;;;807465;178;26429;-81
2024/02/07 13:09:36;;;;;;;12.20;2.83;;;4.80;99.90;;;;;;808656;173;26395;-80
2024/02/07 13:12:02;;;;;;;9.47;3.30;;;4.90;99.90;;;;;;808214;171;26402;-80
2024/02/07 13:14:29;;;;;;;9.20;3.10;;;5.00;99.90;;;;;;808282;173;26398;-81
2024/02/07 13:16:56;;;;;;;11.43;3.43;;;4.90;99.90;;;;;;807631;173;26399;-79
2024/02/07 13:19:23;;;;;;;7.93;3.20;;;4.90;99.90;;;;;;806549;178;26423;-79
2024/02/07 13:21:50;;;;;;;10.63;2.80;;;4.80;99.90;;;;;;812912;177;26528;-78
2024/02/07 13:24:16;;;;;;;11.60;4.33;;;4.80;99.90;;;;;;807330;172;26415;-79
2024/02/07 13:26:44;;;;;;;7.93;3.03;;;4.90;99.90;;;;;;806838;178;26429;-79
2024/02/07 13:29:10;;;;;;;8.30;3.37;;;4.90;99.90;;;;;;806553;177;26387;-79
2024/02/07 13:31:38;;;;;;;7.73;3.33;;;5.10;99.90;;;;;;809131;177;27011;-80
2024/02/07 13:34:05;;;;;;;10.23;3.60;;;5.00;99.90;;;;;;807313;178;26516;-80
2024/02/07 13:36:32;;;;;;;12.37;4.93;;;4.90;99.90;;;;;;805923;174;26387;-79
2024/02/07 13:38:58;;;;;;;13.57;3.87;;;5.00;99.90;;;;;;805707;172;26395;-79
2024/02/07 13:41:25;;;;;;;7.77;3.30;;;5.10;99.90;;;;;;805743;174;26407;-79
2024/02/07 13:43:52;;;;;;;11.83;3.93;;;5.10;99.90;;;;;;808284;173;26390;-80
2024/02/07 13:46:18;;;;;;;17.00;4.23;;;5.00;99.90;;;;;;808852;173;27060;-79
2024/02/07 13:48:45;;;;;;;9.17;3.60;;;4.90;99.90;;;;;;808560;173;26413;-79
2024/02/07 13:51:11;;;;;;;10.13;4.50;;;4.80;99.90;;;;;;810239;171;26549;-80
2024/02/07 13:53:38;;;;;;;16.07;4.80;;;4.80;99.90;;;;;;811171;173;26407;-80
2024/02/07 13:56:05;;;;;;;9.57;3.10;;;5.00;99.90;;;;;;806489;173;27032;-78
2024/02/07 13:58:32;;;;;;;6.67;2.77;;;5.00;99.90;;;;;;804040;178;28063;-78
2024/02/07 14:00:58;;;;;;;9.43;2.77;;;4.80;99.90;;;;;;804216;177;26395;-77
2024/02/07 14:03:25;;;;;;;8.37;2.47;;;4.90;99.90;;;;;;806520;175;26540;-79